Time;durP1;ratioP1;P1;durP2;ratioP2;P2;SDS_P1;SDS_P2;PMS_P1;PMS_P2;Temp;Humidity;BMP_temperature;BMP_pressure;BME280_temperature;BME280_humidity;BME280_pressure;Samples;Min_cycle;Max_cycle;Signal;HPM_P1;HPM_P2
2022/05/28 00:01:57;;;;;;;5.70;1.70;;;;;10.70;101457.00;;;;5022576;28;20237;-72
2022/05/28 00:04:45;;;;;;;2.07;1.57;;;;;10.70;101460.00;;;;5020333;28;20701;-73
2022/05/28 00:07:32;;;;;;;7.23;1.70;;;;;10.60;101456.00;;;;5028509;28;20228;-72
2022/05/28 00:10:19;;;;;;;2.13;1.33;;;;;10.70;101464.00;;;;5025435;28;20899;-72
2022/05/28 00:13:05;;;;;;;4.67;1.50;;;;;10.60;101451.00;;;;5023654;28;20303;-72
2022/05/28 00:15:53;;;;;;;6.40;1.43;;;;;10.60;101464.00;;;;5021230;28;20231;-72
2022/05/28 00:18:40;;;;;;;2.10;1.20;;;;;10.50;101438.00;;;;5021898;28;20375;-71
2022/05/28 00:21:27;;;;;;;3.23;1.60;;;;;10.50;101452.00;;;;5007026;28;20363;-72
2022/05/28 00:24:14;;;;;;;8.33;1.57;;;;;10.60;101450.00;;;;5007554;28;20307;-72
2022/05/28 00:27:01;;;;;;;9.20;2.10;;;;;10.60;101444.00;;;;5027342;28;20238;-72
2022/05/28 00:29:47;;;;;;;3.20;1.43;;;;;10.60;101451.00;;;;5007440;28;20236;-72
2022/05/28 00:32:35;;;;;;;3.27;1.90;;;;;10.60;101446.00;;;;5006948;28;20745;-71
2022/05/28 00:35:21;;;;;;;2.67;1.23;;;;;10.50;101446.00;;;;5006606;28;20238;-71
2022/05/28 00:38:08;;;;;;;8.27;1.90;;;;;10.50;101451.00;;;;5026311;28;20270;-72
2022/05/28 00:40:56;;;;;;;5.87;1.80;;;;;10.50;101443.00;;;;5011537;28;20282;-72
2022/05/28 00:43:45;;;;;;;7.57;1.83;;;;;10.60;101440.00;;;;5015109;28;20291;-73
2022/05/28 00:46:31;;;;;;;2.83;1.47;;;;;10.50;101443.00;;;;5012806;28;20349;-71
2022/05/28 00:49:30;;;;;;;3.37;1.97;;;;;10.40;101437.00;;;;5016822;28;20741;-72
2022/05/28 00:52:19;;;;;;;3.07;1.77;;;;;10.40;101435.00;;;;5016251;28;20750;-71
2022/05/28 00:55:05;;;;;;;6.23;1.77;;;;;10.40;101439.00;;;;5023088;28;20709;-72
2022/05/28 00:57:52;;;;;;;10.37;1.60;;;;;10.50;101442.00;;;;5019016;28;20346;-72
2022/05/28 01:00:39;;;;;;;2.90;1.60;;;;;10.30;101434.00;;;;5016288;28;20831;-72
2022/05/28 01:03:31;;;;;;;2.27;1.40;;;;;10.30;101442.00;;;;5026199;28;20237;-72
2022/05/28 01:06:25;;;;;;;7.50;1.83;;;;;10.20;101429.00;;;;5026419;28;20239;-71
2022/05/28 01:09:17;;;;;;;4.70;1.87;;;;;10.20;101437.00;;;;5018430;28;20247;-72
2022/05/28 01:12:11;;;;;;;5.93;2.17;;;;;10.30;101425.00;;;;4994108;28;20354;-70
2022/05/28 01:15:03;;;;;;;4.93;1.93;;;;;10.30;101430.00;;;;5019519;28;20317;-73
2022/05/28 01:17:53;;;;;;;6.93;1.93;;;;;10.20;101425.00;;;;4972049;28;1070629;-72
2022/05/28 01:20:44;;;;;;;1.53;1.30;;;;;10.10;101422.00;;;;5027159;28;20258;-72
2022/05/28 01:23:49;;;;;;;3.57;1.80;;;;;10.10;101424.00;;;;5023382;28;20603;-72
2022/05/28 01:26:57;;;;;;;4.93;1.70;;;;;10.20;101417.00;;;;5007030;28;20247;-72
2022/05/28 01:29:47;;;;;;;4.83;1.63;;;;;10.20;101423.00;;;;4999289;28;20246;-71
2022/05/28 01:32:35;;;;;;;2.33;1.60;;;;;10.10;101413.00;;;;5004589;28;20731;-71
2022/05/28 01:35:23;;;;;;;4.50;1.50;;;;;10.10;101404.00;;;;5002023;28;20235;-72
2022/05/28 01:38:12;;;;;;;1.73;1.40;;;;;10.10;101397.00;;;;5001041;28;20231;-72
2022/05/28 01:40:59;;;;;;;6.80;1.60;;;;;10.20;101398.00;;;;5003272;28;20278;-72
2022/05/28 01:43:49;;;;;;;2.27;1.53;;;;;10.10;101400.00;;;;5004302;28;20314;-71
2022/05/28 01:46:37;;;;;;;5.23;1.67;;;;;10.10;101398.00;;;;4998863;28;20251;-71
2022/05/28 01:49:25;;;;;;;6.93;1.67;;;;;10.00;101396.00;;;;4997299;28;20250;-72
2022/05/28 01:52:12;;;;;;;2.97;1.67;;;;;10.00;101396.00;;;;5013852;28;20913;-71
2022/05/28 01:55:00;;;;;;;5.80;1.90;;;;;10.20;101388.00;;;;5003899;28;20238;-72
2022/05/28 01:57:46;;;;;;;5.30;1.60;;;;;10.10;101377.00;;;;5021578;28;20234;-72
2022/05/28 02:00:34;;;;;;;4.77;1.73;;;;;10.30;101388.00;;;;5015404;28;20294;-72
2022/05/28 02:03:21;;;;;;;2.50;1.60;;;;;10.30;101379.00;;;;5017109;28;20235;-72
2022/05/28 02:06:07;;;;;;;6.10;1.80;;;;;10.10;101393.00;;;;5007594;28;20226;-71
2022/05/28 02:08:55;;;;;;;5.33;1.77;;;;;10.10;101393.00;;;;5010898;28;20254;-72
2022/05/28 02:11:59;;;;;;;4.07;1.87;;;;;10.00;101398.00;;;;5023180;28;20254;-73
2022/05/28 02:14:56;;;;;;;3.57;1.63;;;;;10.00;101393.00;;;;5024635;28;20273;-71
2022/05/28 02:17:49;;;;;;;4.07;1.50;;;;;10.00;101399.00;;;;5024991;28;20244;-71
2022/05/28 02:20:40;;;;;;;3.33;1.50;;;;;9.90;101400.00;;;;5023118;28;20293;-70
2022/05/28 02:23:42;;;;;;;3.03;1.53;;;;;9.80;101408.00;;;;5023790;28;20247;-72
2022/05/28 02:26:34;;;;;;;3.23;1.43;;;;;9.70;101395.00;;;;5022934;28;20715;-72
2022/05/28 02:29:21;;;;;;;3.77;1.50;;;;;9.80;101397.00;;;;5019055;28;20238;-72
2022/05/28 02:32:17;;;;;;;3.60;1.60;;;;;9.70;101395.00;;;;5020652;28;20243;-72
2022/05/28 02:35:05;;;;;;;4.70;1.80;;;;;9.90;101403.00;;;;5019540;28;20229;-72
2022/05/28 02:37:52;;;;;;;2.00;1.50;;;;;9.80;101401.00;;;;5024356;28;20247;-73
2022/05/28 02:40:38;;;;;;;2.53;1.60;;;;;9.70;101397.00;;;;5023049;28;20297;-72
2022/05/28 02:43:24;;;;;;;3.17;1.50;;;;;9.70;101405.00;;;;5025820;28;20238;-71
2022/05/28 02:46:11;;;;;;;7.23;1.93;;;;;9.70;101390.00;;;;5022612;28;20260;-72
2022/05/28 02:48:58;;;;;;;2.73;1.80;;;;;9.70;101392.00;;;;5020899;28;20253;-72
2022/05/28 02:51:46;;;;;;;4.27;1.77;;;;;9.80;101396.00;;;;5022704;28;20239;-72
2022/05/28 02:54:33;;;;;;;6.50;2.03;;;;;9.70;101389.00;;;;5022280;28;20233;-71
2022/05/28 02:57:19;;;;;;;4.90;1.80;;;;;9.70;101404.00;;;;5019833;28;20222;-71
2022/05/28 03:00:07;;;;;;;4.20;1.77;;;;;9.70;101396.00;;;;5008159;28;20229;-72
2022/05/28 03:02:53;;;;;;;2.43;1.57;;;;;9.60;101386.00;;;;5007302;28;20225;-72
2022/05/28 03:05:39;;;;;;;3.80;1.47;;;;;9.60;101386.00;;;;5016262;28;20237;-71
2022/05/28 03:08:27;;;;;;;2.57;2.00;;;;;9.70;101390.00;;;;5019936;28;20614;-72
2022/05/28 03:11:13;;;;;;;4.57;1.50;;;;;9.60;101378.00;;;;5015868;28;20226;-71
2022/05/28 03:13:59;;;;;;;7.47;1.70;;;;;9.60;101402.00;;;;5023685;28;20877;-71
2022/05/28 03:16:46;;;;;;;3.37;1.70;;;;;9.70;101392.00;;;;5022699;28;20226;-71
2022/05/28 03:19:32;;;;;;;9.03;2.80;;;;;9.80;101396.00;;;;5022156;28;20236;-71
2022/05/28 03:22:18;;;;;;;4.20;1.70;;;;;9.70;101393.00;;;;5025034;28;20230;-72
2022/05/28 03:25:06;;;;;;;2.03;1.70;;;;;9.70;101400.00;;;;5017449;28;20237;-70
2022/05/28 03:27:53;;;;;;;8.87;2.00;;;;;9.70;101411.00;;;;5021119;28;20757;-72
2022/05/28 03:30:39;;;;;;;6.17;1.70;;;;;9.70;101416.00;;;;5021495;28;20237;-72
2022/05/28 03:33:25;;;;;;;2.07;1.87;;;;;9.90;101418.00;;;;5020045;28;20241;-72
2022/05/28 03:36:12;;;;;;;2.30;1.50;;;;;9.90;101405.00;;;;5017254;28;20238;-72
2022/05/28 03:38:59;;;;;;;3.97;1.80;;;;;10.00;101416.00;;;;5016630;28;20353;-71
2022/05/28 03:41:47;;;;;;;3.53;1.80;;;;;10.10;101412.00;;;;5021640;28;20231;-72
2022/05/28 03:44:33;;;;;;;2.20;1.60;;;;;10.30;101418.00;;;;5021355;28;20862;-72
2022/05/28 03:47:20;;;;;;;2.87;1.80;;;;;10.30;101419.00;;;;5023644;28;20232;-72
2022/05/28 03:50:07;;;;;;;3.77;1.60;;;;;10.50;101422.00;;;;5015367;28;20233;-71
2022/05/28 03:52:53;;;;;;;5.27;2.10;;;;;10.40;101422.00;;;;5023160;28;20247;-72
2022/05/28 03:55:40;;;;;;;4.07;2.13;;;;;10.30;101421.00;;;;5021948;28;20241;-70
2022/05/28 03:58:27;;;;;;;6.20;2.10;;;;;10.30;101430.00;;;;5021387;28;20235;-72
2022/05/28 04:01:15;;;;;;;3.20;1.90;;;;;10.30;101425.00;;;;5017554;28;20232;-72
2022/05/28 04:04:01;;;;;;;3.07;2.10;;;;;10.30;101429.00;;;;5014966;28;20310;-73
2022/05/28 04:06:48;;;;;;;5.37;1.70;;;;;10.20;101431.00;;;;5015557;28;20239;-71
2022/05/28 04:09:34;;;;;;;5.73;1.97;;;;;10.30;101434.00;;;;5003381;28;20267;-71
2022/05/28 04:12:20;;;;;;;5.83;2.07;;;;;10.30;101440.00;;;;5004992;28;20267;-70
2022/05/28 04:15:10;;;;;;;4.33;2.00;;;;;10.10;101435.00;;;;5006865;28;20607;-71
2022/05/28 04:17:56;;;;;;;2.83;1.80;;;;;10.10;101441.00;;;;5018149;28;20385;-72
2022/05/28 04:20:42;;;;;;;3.13;1.57;;;;;10.10;101431.00;;;;5024504;28;20229;-71
2022/05/28 04:23:29;;;;;;;3.63;1.80;;;;;10.00;101444.00;;;;5029977;28;20323;-72
2022/05/28 04:26:15;;;;;;;5.27;1.70;;;;;10.10;101439.00;;;;5021138;28;20235;-71
2022/05/28 04:29:02;;;;;;;4.27;1.70;;;;;10.10;101436.00;;;;5019108;28;20297;-72
2022/05/28 04:31:49;;;;;;;6.57;2.30;;;;;10.20;101449.00;;;;5026861;28;20231;-72
2022/05/28 04:34:35;;;;;;;2.33;1.80;;;;;10.30;101438.00;;;;5026836;28;20231;-71
2022/05/28 04:37:22;;;;;;;4.70;2.37;;;;;10.40;101445.00;;;;5020114;28;20238;-72
2022/05/28 04:40:09;;;;;;;3.47;2.00;;;;;10.60;101444.00;;;;5017326;28;20228;-71
2022/05/28 04:42:56;;;;;;;6.50;2.27;;;;;10.80;101452.00;;;;5023452;28;20305;-72
2022/05/28 04:45:42;;;;;;;7.03;2.03;;;;;11.00;101453.00;;;;5017388;28;20419;-71
2022/05/28 04:48:31;;;;;;;2.60;1.80;;;;;11.20;101462.00;;;;5021331;28;20704;-73
2022/05/28 04:51:17;;;;;;;7.07;2.10;;;;;11.30;101448.00;;;;5021382;28;20351;-72
2022/05/28 04:54:04;;;;;;;4.03;1.70;;;;;11.30;101456.00;;;;5020930;28;20228;-72
2022/05/28 04:56:50;;;;;;;4.30;2.10;;;;;11.40;101463.00;;;;5027191;28;20412;-73
2022/05/28 04:59:36;;;;;;;7.17;2.13;;;;;11.70;101457.00;;;;5025333;28;20810;-72
2022/05/28 05:02:22;;;;;;;11.90;2.23;;;;;11.70;101454.00;;;;5022145;28;20239;-73
2022/05/28 05:05:11;;;;;;;7.13;1.90;;;;;11.80;101459.00;;;;5017398;28;20829;-73
2022/05/28 05:07:57;;;;;;;5.27;2.00;;;;;11.80;101456.00;;;;5011581;28;20233;-73
2022/05/28 05:10:45;;;;;;;3.50;1.70;;;;;11.90;101450.00;;;;5003799;28;20274;-73
2022/05/28 05:13:31;;;;;;;3.50;1.77;;;;;11.90;101451.00;;;;5026695;28;20315;-73
2022/05/28 05:16:19;;;;;;;5.17;1.70;;;;;12.00;101462.00;;;;5018512;28;20225;-73
2022/05/28 05:19:06;;;;;;;5.60;1.37;;;;;12.10;101461.00;;;;5025869;28;20702;-74
2022/05/28 05:21:56;;;;;;;2.27;1.50;;;;;12.10;101461.00;;;;5019596;28;20347;-72
2022/05/28 05:24:42;;;;;;;7.13;1.50;;;;;12.20;101460.00;;;;5021264;28;20379;-73
2022/05/28 05:27:28;;;;;;;4.37;1.40;;;;;12.20;101451.00;;;;5003346;28;20285;-73
2022/05/28 05:30:15;;;;;;;4.27;1.47;;;;;12.20;101454.00;;;;5001983;28;20226;-73
2022/05/28 05:33:01;;;;;;;3.60;1.00;;;;;12.30;101461.00;;;;5023353;28;20303;-72
2022/05/28 05:35:47;;;;;;;3.23;1.40;;;;;12.40;101455.00;;;;4997278;28;20253;-71
2022/05/28 05:38:35;;;;;;;4.43;1.90;;;;;12.40;101463.00;;;;5022074;28;20357;-73
2022/05/28 05:41:22;;;;;;;2.53;1.20;;;;;12.40;101432.00;;;;5023587;28;20261;-72
2022/05/28 05:44:08;;;;;;;1.57;1.07;;;;;12.40;101464.00;;;;5021729;28;20217;-72
2022/05/28 05:46:55;;;;;;;2.30;1.23;;;;;12.50;101476.00;;;;5026692;28;20233;-72
2022/05/28 05:49:42;;;;;;;2.80;1.30;;;;;12.50;101464.00;;;;5021911;28;20295;-72
2022/05/28 05:52:28;;;;;;;1.90;1.00;;;;;12.50;101469.00;;;;5026268;28;20615;-72
2022/05/28 05:55:16;;;;;;;1.47;1.03;;;;;12.60;101471.00;;;;5024001;28;20221;-72
2022/05/28 05:58:04;;;;;;;1.93;0.93;;;;;12.70;101475.00;;;;5025923;28;20249;-73
2022/05/28 06:00:50;;;;;;;2.93;1.13;;;;;12.70;101468.00;;;;5031404;28;20232;-73
2022/05/28 06:03:38;;;;;;;2.17;1.20;;;;;12.80;101468.00;;;;5024584;28;20225;-72
2022/05/28 06:06:25;;;;;;;5.37;1.50;;;;;12.80;101467.00;;;;5017191;28;20886;-71
2022/05/28 06:09:12;;;;;;;5.53;1.33;;;;;12.80;101464.00;;;;5015446;28;20629;-72
2022/05/28 06:11:59;;;;;;;3.83;1.17;;;;;12.90;101482.00;;;;5020772;28;20257;-70
2022/05/28 06:14:45;;;;;;;1.33;0.90;;;;;12.90;101475.00;;;;5025768;28;20603;-72
2022/05/28 06:17:33;;;;;;;3.17;1.00;;;;;13.20;101483.00;;;;5022099;28;20232;-73
2022/05/28 06:20:19;;;;;;;2.87;1.10;;;;;13.40;101482.00;;;;5019569;28;20229;-72
2022/05/28 06:23:06;;;;;;;1.63;1.00;;;;;13.50;101486.00;;;;5024378;28;20222;-72
2022/05/28 06:25:52;;;;;;;2.97;1.00;;;;;13.50;101477.00;;;;5025429;28;21063;-71
2022/05/28 06:28:40;;;;;;;1.53;0.83;;;;;13.70;101474.00;;;;5022005;28;20713;-72
2022/05/28 06:31:26;;;;;;;2.90;1.30;;;;;13.60;101485.00;;;;5020322;28;20225;-72
2022/05/28 06:34:14;;;;;;;1.50;1.10;;;;;13.90;101480.00;;;;5012993;28;20345;-72
2022/05/28 06:37:00;;;;;;;0.90;0.90;;;;;13.90;101485.00;;;;5021925;28;20228;-72
2022/05/28 06:39:46;;;;;;;2.70;1.37;;;;;14.10;101470.00;;;;5014085;28;20242;-73
2022/05/28 06:42:33;;;;;;;5.53;1.50;;;;;14.20;101480.00;;;;5020873;28;20365;-72
2022/05/28 06:45:21;;;;;;;3.93;1.00;;;;;14.10;101474.00;;;;5021025;28;20228;-72
2022/05/28 06:48:08;;;;;;;3.97;1.27;;;;;14.10;101473.00;;;;5017459;28;20233;-73
2022/05/28 06:51:03;;;;;;;2.20;1.00;;;;;14.10;101475.00;;;;5022994;28;20260;-72
2022/05/28 06:53:50;;;;;;;2.13;1.30;;;;;14.10;101482.00;;;;5023454;28;20320;-73
2022/05/28 06:56:36;;;;;;;5.13;1.33;;;;;14.00;101483.00;;;;5016254;28;20238;-73
2022/05/28 06:59:23;;;;;;;1.40;1.07;;;;;14.40;101483.00;;;;5018223;28;20237;-72
2022/05/28 07:02:10;;;;;;;6.27;1.30;;;;;14.50;101489.00;;;;5018401;28;20229;-71
2022/05/28 07:04:57;;;;;;;1.03;0.90;;;;;14.40;101494.00;;;;5020603;28;20234;-71
2022/05/28 07:07:43;;;;;;;3.63;1.30;;;;;14.50;101492.00;;;;5012470;28;20233;-69
2022/05/28 07:10:30;;;;;;;3.37;1.00;;;;;14.40;101491.00;;;;5019747;28;20228;-70
2022/05/28 07:13:17;;;;;;;5.97;1.10;;;;;14.50;101494.00;;;;5015920;28;20267;-70
2022/05/28 07:16:05;;;;;;;2.33;1.30;;;;;14.40;101505.00;;;;5021060;28;20281;-70
2022/05/28 07:18:53;;;;;;;3.50;1.37;;;;;14.20;101501.00;;;;5022701;28;20317;-71
2022/05/28 07:21:39;;;;;;;3.80;1.20;;;;;14.30;101497.00;;;;5023662;28;20602;-71
2022/05/28 07:24:25;;;;;;;2.27;1.07;;;;;14.30;101497.00;;;;5025142;28;20228;-71
2022/05/28 07:27:13;;;;;;;2.70;0.97;;;;;14.50;101492.00;;;;5022966;28;20618;-71
2022/05/28 07:29:59;;;;;;;3.30;1.27;;;;;14.60;101489.00;;;;5022813;28;20610;-71
2022/05/28 07:32:45;;;;;;;2.40;1.00;;;;;14.60;101501.00;;;;5024446;28;20233;-71
2022/05/28 07:35:33;;;;;;;2.93;1.40;;;;;14.40;101505.00;;;;5012630;28;20813;-71
2022/05/28 07:38:19;;;;;;;3.20;1.20;;;;;14.60;101501.00;;;;5019244;28;20718;-70
2022/05/28 07:41:08;;;;;;;1.27;1.10;;;;;14.80;101502.00;;;;5023639;28;20360;-71
2022/05/28 07:43:57;;;;;;;2.37;1.10;;;;;15.20;101505.00;;;;5021379;28;20765;-70
2022/05/28 07:46:43;;;;;;;3.17;1.10;;;;;15.50;101498.00;;;;5020649;28;20241;-71
2022/05/28 07:49:30;;;;;;;1.77;1.00;;;;;15.60;101501.00;;;;5023410;28;20838;-72
2022/05/28 07:52:18;;;;;;;4.23;1.30;;;;;15.90;101495.00;;;;5022030;28;20241;-72
2022/05/28 07:55:05;;;;;;;2.73;1.30;;;;;15.90;101501.00;;;;5025411;28;20245;-71
2022/05/28 07:57:57;;;;;;;1.53;1.00;;;;;16.00;101504.00;;;;5027965;28;20238;-72
2022/05/28 08:00:46;;;;;;;3.00;1.00;;;;;15.90;101497.00;;;;5015507;28;20761;-73
2022/05/28 08:03:34;;;;;;;2.20;1.17;;;;;15.90;101498.00;;;;5024588;28;20230;-72
2022/05/28 08:06:21;;;;;;;6.03;1.00;;;;;16.20;101502.00;;;;5018698;28;20233;-71
2022/05/28 08:09:11;;;;;;;2.67;1.30;;;;;16.00;101506.00;;;;5026362;28;20254;-72
2022/05/28 08:11:57;;;;;;;4.27;1.27;;;;;15.40;101500.00;;;;5024299;28;20313;-72
2022/05/28 08:14:43;;;;;;;4.10;1.13;;;;;15.30;101495.00;;;;5024376;28;20722;-72
2022/05/28 08:17:31;;;;;;;1.53;1.03;;;;;15.10;101503.00;;;;5026501;28;20739;-71
2022/05/28 08:20:17;;;;;;;6.80;1.30;;;;;15.10;101505.00;;;;5023472;28;20222;-72
2022/05/28 08:23:11;;;;;;;3.47;1.30;;;;;15.30;101499.00;;;;5012325;28;20238;-73
2022/05/28 08:26:00;;;;;;;2.83;1.30;;;;;15.50;101493.00;;;;5006137;28;20278;-70
2022/05/28 08:28:47;;;;;;;3.13;1.07;;;;;16.00;101494.00;;;;5003877;28;20239;-72
2022/05/28 08:31:33;;;;;;;5.03;1.00;;;;;16.30;101488.00;;;;5001549;28;20238;-71
2022/05/28 08:34:20;;;;;;;2.77;1.07;;;;;16.80;101489.00;;;;5002837;28;20222;-72
2022/05/28 08:37:06;;;;;;;1.53;1.03;;;;;16.50;101496.00;;;;5015037;28;20234;-72
2022/05/28 08:39:52;;;;;;;3.37;0.93;;;;;16.40;101504.00;;;;5013959;28;20234;-71
2022/05/28 08:42:41;;;;;;;2.97;1.10;;;;;16.20;101510.00;;;;5023109;28;20752;-73
2022/05/28 08:45:27;;;;;;;1.27;0.90;;;;;16.50;101510.00;;;;5014857;28;20260;-73
2022/05/28 08:48:17;;;;;;;1.60;0.93;;;;;16.70;101490.00;;;;5025796;28;20231;-71
2022/05/28 08:51:07;;;;;;;3.13;1.30;;;;;16.80;101496.00;;;;5026858;28;20232;-71
2022/05/28 08:53:59;;;;;;;1.90;0.87;;;;;16.50;101513.00;;;;5013174;28;20262;-71
2022/05/28 08:56:47;;;;;;;6.17;1.07;;;;;16.20;101494.00;;;;5001468;28;20232;-72
2022/05/28 08:59:39;;;;;;;3.23;0.90;;;;;16.20;101500.00;;;;5002671;28;20282;-71
2022/05/28 09:02:33;;;;;;;4.87;1.00;;;;;16.00;101498.00;;;;5022690;28;20345;-73
2022/05/28 09:05:28;;;;;;;2.37;1.20;;;;;15.90;101493.00;;;;5021993;28;20227;-74
2022/05/28 09:08:20;;;;;;;1.33;1.00;;;;;15.90;101503.00;;;;5000797;28;20236;-73
2022/05/28 09:11:10;;;;;;;1.00;1.00;;;;;16.30;101490.00;;;;5021357;28;20243;-71
2022/05/28 09:13:57;;;;;;;3.57;1.10;;;;;16.40;101500.00;;;;5024975;28;20273;-71
2022/05/28 09:16:47;;;;;;;2.90;1.20;;;;;16.40;101501.00;;;;5025501;28;20297;-71
2022/05/28 09:19:38;;;;;;;2.23;1.10;;;;;16.20;101495.00;;;;5022353;28;20225;-71
2022/05/28 09:22:26;;;;;;;5.53;1.27;;;;;16.10;101498.00;;;;5025710;28;20764;-72
2022/05/28 09:25:14;;;;;;;1.23;0.90;;;;;15.80;101502.00;;;;5024960;28;20708;-70
2022/05/28 09:28:11;;;;;;;2.30;0.90;;;;;15.90;101497.00;;;;5026911;28;20248;-71
2022/05/28 09:31:07;;;;;;;1.20;1.10;;;;;16.60;101490.00;;;;5023934;28;20299;-71
2022/05/28 09:34:16;;;;;;;4.03;0.80;;;;;17.00;101478.00;;;;5018653;28;20283;-71
2022/05/28 09:37:13;;;;;;;4.40;1.07;;;;;17.30;101479.00;;;;5005223;28;20302;-71
2022/05/28 09:40:08;;;;;;;1.70;1.03;;;;;16.60;101482.00;;;;5006030;28;20791;-71
2022/05/28 09:43:42;;;;;;;2.77;0.80;;;;;17.00;101475.00;;;;5021387;28;20709;-70
2022/05/28 09:46:33;;;;;;;1.13;0.80;;;;;17.60;101477.00;;;;4977719;28;20237;-72
2022/05/28 09:49:24;;;;;;;2.57;1.00;;;;;17.90;101479.00;;;;5025074;28;20874;-71
2022/05/28 09:52:12;;;;;;;1.53;1.00;;;;;17.70;101486.00;;;;5004060;28;20265;-71
2022/05/28 09:55:15;;;;;;;3.33;1.27;;;;;17.60;101484.00;;;;5017103;28;20304;-71
2022/05/28 09:58:04;;;;;;;3.70;1.20;;;;;17.20;101484.00;;;;5001215;28;20242;-69
2022/05/28 10:00:50;;;;;;;2.87;1.10;;;;;17.00;101478.00;;;;5006645;28;20225;-71
2022/05/28 10:06:53;;;;;;;2.50;1.00;;;;;17.50;101485.00;;;;4996019;28;20231;-69
2022/05/28 10:09:49;;;;;;;3.13;0.90;;;;;17.70;101476.00;;;;5000700;28;20230;-67
2022/05/28 10:12:35;;;;;;;1.93;1.17;;;;;17.80;101478.00;;;;4993208;28;20254;-69
2022/05/28 10:15:24;;;;;;;4.43;1.20;;;;;18.10;101469.00;;;;5004574;28;20275;-68
2022/05/28 10:18:18;;;;;;;1.10;1.00;;;;;18.70;101449.00;;;;5005155;28;20298;-69
2022/05/28 10:21:09;;;;;;;7.23;1.13;;;;;18.20;101469.00;;;;5015137;28;20717;-70
2022/05/28 10:24:01;;;;;;;1.77;0.90;;;;;18.20;101475.00;;;;5011261;28;20277;-69
2022/05/28 10:26:50;;;;;;;1.53;0.90;;;;;18.60;101465.00;;;;4996586;28;20230;-70
2022/05/28 10:29:44;;;;;;;3.60;1.30;;;;;18.70;101481.00;;;;4996916;28;20234;-70
2022/05/28 10:32:35;;;;;;;1.67;1.33;;;;;18.70;101467.00;;;;4992198;28;20230;-69
2022/05/28 10:35:25;;;;;;;3.77;0.97;;;;;18.60;101455.00;;;;5023615;28;20846;-69
2022/05/28 10:38:16;;;;;;;4.00;1.33;;;;;18.70;101464.00;;;;5025085;28;20810;-69
2022/05/28 10:41:16;;;;;;;6.20;1.20;;;;;18.70;101471.00;;;;5003912;28;20234;-71
2022/05/28 10:44:02;;;;;;;2.73;1.07;;;;;19.00;101479.00;;;;5019875;28;20339;-70
2022/05/28 10:47:05;;;;;;;3.40;1.10;;;;;19.00;101464.00;;;;5025311;28;20233;-71
2022/05/28 10:50:03;;;;;;;2.30;1.10;;;;;18.80;101479.00;;;;5008927;28;20264;-71
2022/05/28 10:53:01;;;;;;;4.87;1.47;;;;;18.80;101472.00;;;;5016632;28;20656;-70
2022/05/28 10:56:02;;;;;;;3.37;1.03;;;;;18.60;101472.00;;;;5011099;28;20245;-71
2022/05/28 10:59:01;;;;;;;5.33;1.10;;;;;18.40;101482.00;;;;5020816;28;20241;-69
2022/05/28 11:01:58;;;;;;;3.00;1.20;;;;;18.20;101477.00;;;;5019172;28;20233;-69
2022/05/28 11:05:02;;;;;;;3.43;1.20;;;;;18.50;101479.00;;;;5018714;28;20299;-71
2022/05/28 11:07:58;;;;;;;2.30;1.10;;;;;18.90;101483.00;;;;5023522;28;20237;-71
2022/05/28 11:11:04;;;;;;;1.53;1.17;;;;;18.60;101478.00;;;;5017778;28;20233;-70
2022/05/28 11:14:06;;;;;;;3.23;1.40;;;;;18.50;101480.00;;;;5019899;28;20237;-70
2022/05/28 11:17:06;;;;;;;2.63;1.10;;;;;18.50;101459.00;;;;5019703;28;20460;-70
2022/05/28 11:20:12;;;;;;;3.60;1.37;;;;;18.70;101473.00;;;;5018763;28;20272;-71
2022/05/28 11:23:13;;;;;;;4.57;1.30;;;;;19.10;101467.00;;;;5025780;28;20229;-71
2022/05/28 11:26:08;;;;;;;3.87;1.20;;;;;19.20;101458.00;;;;5020226;28;20226;-71
2022/05/28 11:29:11;;;;;;;1.57;0.90;;;;;19.10;101469.00;;;;5024666;28;20249;-71
2022/05/28 11:32:02;;;;;;;2.13;1.07;;;;;18.80;101468.00;;;;5021401;28;20304;-72
2022/05/28 11:34:54;;;;;;;1.93;1.10;;;;;18.60;101461.00;;;;5021298;28;20238;-70
2022/05/28 11:37:45;;;;;;;3.33;1.10;;;;;18.40;101473.00;;;;5027921;28;20745;-71
2022/05/28 11:40:38;;;;;;;2.20;1.20;;;;;18.70;101458.00;;;;5022716;28;20299;-71
2022/05/28 11:43:29;;;;;;;3.57;1.17;;;;;19.20;101448.00;;;;5023375;28;20224;-70
2022/05/28 11:46:24;;;;;;;3.60;1.10;;;;;19.90;101453.00;;;;5026998;28;20229;-68
2022/05/28 11:52:30;;;;;;;3.77;1.10;;;;;20.60;101440.00;;;;5018147;28;20233;-72
2022/05/28 11:55:21;;;;;;;4.23;1.00;;;;;20.00;101436.00;;;;5020519;28;20981;-73
2022/05/28 11:58:14;;;;;;;4.33;1.30;;;;;19.30;101437.00;;;;5020840;28;20765;-72
2022/05/28 12:01:03;;;;;;;4.20;1.00;;;;;19.60;101430.00;;;;5015580;28;20353;-69
2022/05/28 12:03:52;;;;;;;2.07;1.10;;;;;20.50;101422.00;;;;5021285;28;20230;-72
2022/05/28 12:06:44;;;;;;;6.07;1.40;;;;;20.40;101408.00;;;;5022365;28;20309;-71
2022/05/28 12:09:33;;;;;;;2.77;1.27;;;;;20.40;101438.00;;;;5022883;28;20646;-69
2022/05/28 12:12:23;;;;;;;1.03;0.90;;;;;20.60;101434.00;;;;5023861;28;20229;-71
2022/05/28 12:15:24;;;;;;;3.37;1.20;;;;;20.20;101428.00;;;;5027546;28;20280;-70
2022/05/28 12:18:22;;;;;;;3.60;1.30;;;;;20.30;101402.00;;;;5025152;28;20228;-70
2022/05/28 12:21:11;;;;;;;1.70;1.03;;;;;20.30;101420.00;;;;5022704;28;20236;-70
2022/05/28 12:24:10;;;;;;;3.00;1.30;;;;;20.30;101414.00;;;;5027357;28;20604;-69
2022/05/28 12:27:18;;;;;;;5.40;1.30;;;;;20.60;101415.00;;;;5017478;28;20230;-69
2022/05/28 12:30:08;;;;;;;2.37;1.00;;;;;20.50;101410.00;;;;5027895;28;20233;-70
2022/05/28 12:32:57;;;;;;;3.03;1.03;;;;;20.80;101394.00;;;;5022617;28;20283;-71
2022/05/28 12:35:51;;;;;;;3.70;1.20;;;;;20.50;101391.00;;;;5018783;28;20231;-69
2022/05/28 12:38:49;;;;;;;4.17;1.20;;;;;20.60;101403.00;;;;5019217;28;20233;-69
2022/05/28 12:41:38;;;;;;;2.17;1.43;;;;;20.20;101414.00;;;;5020366;28;20233;-70
2022/05/28 12:44:25;;;;;;;2.10;1.30;;;;;19.70;101408.00;;;;5020474;28;20225;-69
2022/05/28 12:47:11;;;;;;;3.73;1.13;;;;;19.60;101403.00;;;;5019629;28;20229;-68
2022/05/28 12:50:04;;;;;;;3.67;1.20;;;;;19.20;101397.00;;;;5019638;28;20237;-68
2022/05/28 12:52:57;;;;;;;2.13;1.10;;;;;19.20;101394.00;;;;5014279;28;20234;-68
2022/05/28 12:55:45;;;;;;;2.90;1.20;;;;;19.90;101405.00;;;;5020930;28;20304;-68
2022/05/28 12:58:34;;;;;;;10.20;1.17;;;;;20.00;101410.00;;;;5019317;28;20319;-66
2022/05/28 13:01:23;;;;;;;2.37;1.00;;;;;20.10;101395.00;;;;5020639;28;20229;-67
2022/05/28 13:04:15;;;;;;;2.03;1.00;;;;;20.10;101399.00;;;;5022871;28;20741;-70
2022/05/28 13:07:03;;;;;;;3.43;1.03;;;;;20.40;101395.00;;;;5024675;28;20402;-71
2022/05/28 13:09:56;;;;;;;2.70;1.27;;;;;20.60;101390.00;;;;5020750;28;20793;-70
2022/05/28 13:12:54;;;;;;;3.43;1.23;;;;;20.70;101380.00;;;;5025458;28;20233;-68
2022/05/28 13:16:05;;;;;;;7.17;1.30;;;;;21.20;101388.00;;;;5025387;28;20613;-68
2022/05/28 13:19:14;;;;;;;2.10;1.20;;;;;21.20;101386.00;;;;5020806;28;20805;-70
2022/05/28 13:22:07;;;;;;;4.97;1.07;;;;;20.50;101388.00;;;;5025054;28;20387;-67
2022/05/28 13:25:24;;;;;;;4.93;1.37;;;;;20.40;101388.00;;;;5021180;28;20238;-70
2022/05/28 13:28:39;;;;;;;3.13;1.10;;;;;20.90;101384.00;;;;5003002;28;20755;-73
2022/05/28 13:31:29;;;;;;;2.43;1.10;;;;;20.60;101385.00;;;;5005381;28;21133;-69
2022/05/28 13:34:22;;;;;;;2.57;1.23;;;;;20.80;101378.00;;;;5020849;28;20229;-68
2022/05/28 13:37:16;;;;;;;3.23;1.40;;;;;21.00;101383.00;;;;5005388;28;20226;-69
2022/05/28 13:40:04;;;;;;;2.10;1.10;;;;;21.60;101382.00;;;;5006230;28;20235;-68
2022/05/28 13:42:52;;;;;;;2.63;0.97;;;;;21.00;101349.00;;;;5025474;28;20227;-68
2022/05/28 13:45:41;;;;;;;1.37;1.10;;;;;21.40;101386.00;;;;5002115;28;20706;-66
2022/05/28 13:48:28;;;;;;;3.03;1.30;;;;;21.20;101369.00;;;;5006394;28;20247;-69
2022/05/28 13:51:15;;;;;;;3.53;1.40;;;;;21.50;101365.00;;;;5004213;28;20248;-68
2022/05/28 13:54:07;;;;;;;2.53;1.07;;;;;22.10;101332.00;;;;5000959;28;20365;-68
2022/05/28 13:56:56;;;;;;;3.10;1.17;;;;;22.80;101359.00;;;;4999508;28;20229;-68
2022/05/28 13:59:49;;;;;;;1.90;0.83;;;;;24.00;101366.00;;;;5015095;28;20253;-69
2022/05/28 14:02:38;;;;;;;2.40;1.00;;;;;24.10;101362.00;;;;4999142;28;20238;-69
2022/05/28 14:05:30;;;;;;;6.40;1.23;;;;;22.80;101370.00;;;;5005447;28;20241;-67
2022/05/28 14:08:23;;;;;;;2.90;1.17;;;;;22.70;101364.00;;;;5021367;28;20264;-68